Terminal Aerodrome Forecast
Issued by NWS

Home | Current Version | Previous Version | Text Only | Print | Product List | Glossary On
Versions: 1 2 3 4 5 6 7 8 9 10 11 12 13 14 15 16 17 18 19 20 21
650
FTUS46 KMFR 200233 AAA
TAFOTH
TAF AMD
KOTH 200233Z 2003/2024 17007KT P6SM -SHRA SCT020 OVC040
     FM200900 21012KT 5SM -RA BR BKN009 OVC025
     FM201200 26017G23KT 3SM SHRA OVC035
     FM201500 25017G23KT 2SM SHRA OVC020=

USA.gov is the U.S. government's official web portal to all federal, state and local government web resources and services.